Stations météo

réclame
Mon MeteoGroup
Faaroesund-ar, Suède (2587): Température de l'air & dewpoint: 18.02.2018 13:00:00 - 24.02.2018 13:00:00 (CET)Faaroesund-ar, Suède (2587): Vitesse du vent & gusts: 18.02.2018 13:00:00 - 24.02.2018 13:00:00 (CET)Faaroesund-ar, Suède (2587): Direction du vent: 18.02.2018 13:00:00 - 24.02.2018 13:00:00 (CET)Faaroesund-ar, Suède (2587): visibility: 18.02.2018 13:00:00 - 24.02.2018 13:00:00 (CET)Faaroesund-ar, Suède (2587): Quantités de précipitations: 18.02.2018 13:00:00 - 24.02.2018 13:00:00 (CET)
Date & Time tt [°C] td [°C] ff [km/h] ff [knt] fx [km/h] fx [knt] dd vv [km] rr [mm]
24.02.2018 13:00:00 - - - - - - - - -
24.02.2018 12:00:00 -4,1 -8,0 27 14 45 24 ENE 50 0,0
24.02.2018 11:00:00 -4,0 -6,6 27 14 44 24 NE 23 0,0
24.02.2018 10:00:00 -5,2 -6,3 32 18 46 25 ENE 0,6 0,0
24.02.2018 09:00:00 -4,9 -6,1 26 14 50 27 ENE 2,1 0,0
24.02.2018 08:00:00 -3,7 -8,9 36 19 55 30 NNE 50 0,0
24.02.2018 07:00:00 -4,3 -7,4 39 21 55 30 NE 5 0,0
24.02.2018 06:00:00 -4,2 -8,7 44 24 60 32 NE 24 0,0
24.02.2018 05:00:00 -4,0 -5,7 27 15 60 32 ENE 3,8 0,0
24.02.2018 04:00:00 -4,0 -6,1 30 16 54 29 ENE 22 0,0
24.02.2018 03:00:00 -4,0 -6,3 26 14 61 33 ENE 50 0,0
24.02.2018 02:00:00 -4,7 -5,8 35 19 61 33 ENE 0,5 0,0
24.02.2018 01:00:00 -3,5 -5,0 31 17 59 32 ENE 24 0,0
24.02.2018 00:00:00 -3,4 -5,4 41 22 62 33 NE 9 0,0
23.02.2018 23:00:00 -3,6 -5,8 41 22 62 33 NE 2,2 0,0
23.02.2018 22:00:00 -3,8 -5,9 49 27 69 37 NE 4,2 0,0
23.02.2018 21:00:00 -4,0 -5,7 51 28 74 40 NNE 2,3 0,0
23.02.2018 20:00:00 -3,4 -4,8 46 25 74 40 NNE 0,8 0,0
23.02.2018 19:00:00 -3,2 -5,1 48 26 75 40 NE 4,4 0,0
23.02.2018 18:00:00 -2,5 -6,1 54 29 75 40 NNE 3,3 0,0
23.02.2018 17:00:00 -1,9 -8,6 53 29 67 36 NNE 19 0,0
23.02.2018 16:00:00 -2,0 -7,3 48 26 64 35 N 6 0,0
23.02.2018 15:00:00 - - - - - - - - -
23.02.2018 14:00:00 -1,7 -6,1 39 21 51 28 NNE 21 0,0
23.02.2018 13:00:00 -1,5 -7,2 37 20 49 26 N 29 0,0
23.02.2018 12:00:00 -1,2 -5,1 38 21 49 26 N 12 0,0
23.02.2018 11:00:00 -0,8 -5,0 31 17 42 23 N 28 0,0
23.02.2018 10:00:00 -0,7 -3,1 32 17 41 22 NNW 8 0,0
23.02.2018 09:00:00 -0,9 -3,6 22 12 32 18 NW 45 0,0
23.02.2018 08:00:00 -1,0 -3,0 26 14 35 19 NW 18 0,0
23.02.2018 07:00:00 -0,9 -3,3 27 15 35 19 WNW 22 0,0
23.02.2018 06:00:00 -3,0 -4,0 13 7 18 10 SSW 4,2 0,0
23.02.2018 05:00:00 -3,5 -4,5 12 7 18 10 SSW 16 0,0
23.02.2018 04:00:00 -3,8 -4,6 12 6 18 10 SSW 6 0,0
23.02.2018 03:00:00 -4,3 -5,4 10 5 15 8 SSW 6 0,0
23.02.2018 02:00:00 -4,6 -5,8 11 6 19 11 SSW 7 0,0
23.02.2018 01:00:00 -4,6 -6,0 10 6 24 13 SSW 27 0,0
23.02.2018 00:00:00 -4,6 -6,1 16 9 30 16 S 11 0,0
22.02.2018 23:00:00 -4,6 -6,4 15 8 30 16 S 7 0,0
22.02.2018 22:00:00 -4,4 -7,3 12 7 23 12 SSW 4,6 0,0
22.02.2018 21:00:00 -4,2 -7,6 11 6 22 12 S 23 0,0
22.02.2018 20:00:00 -4,1 -7,9 13 7 22 12 SSW 50 0,0
22.02.2018 19:00:00 -3,8 -7,8 9 5 17 9 S 50 0,0
22.02.2018 18:00:00 -3,5 -8,0 10 5 18 10 S 50 0,0
22.02.2018 17:00:00 -3,2 -8,1 10 6 21 12 S 50 0,0
22.02.2018 16:00:00 -2,9 -8,8 13 7 23 12 S 50 0,0
22.02.2018 15:00:00 -2,6 -8,7 13 7 23 12 S 50 0,0
22.02.2018 14:00:00 -2,4 -8,9 13 7 23 12 S 50 0,0
22.02.2018 13:00:00 -2,3 -9,0 11 6 23 12 S 50 0,0
22.02.2018 12:00:00 -2,0 -8,9 12 6 23 12 S 50 0,0
22.02.2018 11:00:00 -2,0 -8,7 12 7 18 10 SSE 48 0,0
22.02.2018 10:00:00 -2,1 -8,6 10 5 18 10 SSE 47 0,0
22.02.2018 09:00:00 -2,8 -8,3 13 7 18 10 SE 49 0,0
22.02.2018 08:00:00 -4,9 -8,1 6 3 11 6 SSE 50 0,0
22.02.2018 07:00:00 -5,0 -7,9 5 3 14 8 SSE 50 0,0
22.02.2018 06:00:00 -5,4 -7,5 9 5 15 8 SE 33 0,0
22.02.2018 05:00:00 -6,4 -7,6 13 7 15 8 SSE 50 0,0
22.02.2018 04:00:00 -6,2 -8,0 10 5 13 7 SSE 50 0,0
22.02.2018 03:00:00 -5,9 -9,0 8 5 16 9 SE 50 0,0
22.02.2018 02:00:00 -5,5 -7,9 11 6 16 9 ESE 48 0,0
22.02.2018 01:00:00 -4,9 -6,4 10 6 13 7 SSE 4,7 0,0
22.02.2018 00:00:00 -5,7 -9,1 8 4 16 9 SE 50 0,0
21.02.2018 23:00:00 -5,8 -9,0 11 6 16 9 SE 50 0,0
21.02.2018 22:00:00 -5,5 -8,6 9 5 22 12 SE 50 0,0
21.02.2018 21:00:00 -4,8 -7,7 11 6 22 12 ESE 50 0,0
21.02.2018 20:00:00 -4,3 -6,8 13 7 23 12 ESE 35 0,0
21.02.2018 19:00:00 -3,6 -5,0 12 7 26 14 SE 12 0,0
21.02.2018 18:00:00 -3,5 -4,3 14 7 27 14 ESE 5 0,0
21.02.2018 17:00:00 -3,2 -3,9 13 7 27 14 ESE 3,4 0,0
21.02.2018 16:00:00 -3,1 -3,8 16 9 32 17 E 1,6 0,0
21.02.2018 15:00:00 -2,8 -3,5 17 9 32 17 NNE 1,8 0,0
21.02.2018 14:00:00 -2,5 -5,6 7 4 10 5 NW 47 0,0
21.02.2018 13:00:00 -2,1 -5,2 2 1 6 3 NNW 11 0,0
21.02.2018 12:00:00 -3,2 -5,2 2 1 7 4 E 1,9 0,0
21.02.2018 11:00:00 -3,1 -4,4 5 3 7 4 SSW 2,5 0,0
21.02.2018 10:00:00 -3,7 -4,7 5 3 11 6 SW 1,5 0,0
21.02.2018 09:00:00 -4,1 -5,2 5 3 12 6 SSW 2,5 0,0
21.02.2018 08:00:00 -3,1 -5,9 7 4 20 11 NNE 8 0,0
21.02.2018 07:00:00 -3,0 -6,1 0 0 24 13 N 16 0,0
21.02.2018 06:00:00 -2,8 -7,5 16 8 24 13 N 45 0,0
21.02.2018 05:00:00 -2,8 -8,5 17 9 24 13 N 50 0,0
21.02.2018 04:00:00 -2,9 -8,4 14 8 24 13 N 50 0,0
21.02.2018 03:00:00 -2,9 -8,0 13 7 24 13 NNE 50 0,0
21.02.2018 02:00:00 -3,1 -7,1 17 9 26 14 NE 23 0,0
21.02.2018 01:00:00 -3,2 -5,8 18 10 26 14 NNE 7 3,4
21.02.2018 00:00:00 -3,0 -5,5 18 10 26 14 NE 5 0,0
20.02.2018 23:00:00 -2,9 -4,6 18 10 26 14 NE 6 0,6
20.02.2018 22:00:00 -3,3 -4,4 7 4 17 9 E 2,6 0,2
20.02.2018 21:00:00 -3,3 -4,4 6 3 17 9 ESE 5 0,2
20.02.2018 20:00:00 -3,4 -4,2 6 4 10 5 ESE 1,7 0,4
20.02.2018 19:00:00 -3,4 -4,7 6 3 18 10 SE 3,4 0,2
20.02.2018 18:00:00 -3,1 -4,5 6 3 20 11 SE 2,1 0,1
20.02.2018 17:00:00 -2,5 -4,4 14 8 20 11 E 4,1 0,1
20.02.2018 16:00:00 -2,2 -4,9 16 8 21 11 ENE 7 0,0
20.02.2018 15:00:00 -1,9 -5,4 13 7 22 12 NNE 21 0,0
20.02.2018 14:00:00 -1,7 -5,9 11 6 22 12 ENE 44 0,0
20.02.2018 13:00:00 -1,4 -6,2 13 7 21 11 ENE 50 0,0
20.02.2018 12:00:00 -1,7 -5,9 15 8 21 11 ENE 14 0,0
20.02.2018 11:00:00 -1,8 -4,5 13 7 20 11 ENE 4,5 0,1
20.02.2018 10:00:00 -1,9 -4,6 10 5 23 12 ENE 3,6 0,1
20.02.2018 09:00:00 -2,0 -3,9 15 8 26 14 ENE 3,2 0,1
20.02.2018 08:00:00 -1,7 -3,9 19 10 29 16 NE 6 0,0
20.02.2018 07:00:00 -1,5 -4,5 10 5 29 16 NNE 17 0,1
20.02.2018 06:00:00 -1,5 -3,8 19 10 27 14 NNE 7 0,0
20.02.2018 05:00:00 -1,1 -5,9 16 9 41 22 N 44 0,0
20.02.2018 04:00:00 -1,4 -6,0 20 11 41 22 NE 50 0,0
20.02.2018 03:00:00 -1,5 -6,3 15 8 32 17 ENE 50 0,0
20.02.2018 02:00:00 -1,4 -5,1 19 10 31 17 ENE 43 0,0
20.02.2018 01:00:00 -1,4 -5,6 23 12 31 17 NE 50 0,0
20.02.2018 00:00:00 -1,5 -4,7 20 11 34 18 ENE 30 0,0
19.02.2018 23:00:00 -1,4 -4,6 25 13 34 18 ENE 28 0,0
19.02.2018 22:00:00 -1,3 -4,5 27 15 35 19 ENE 23 0,0
19.02.2018 21:00:00 -1,2 -4,4 25 13 35 19 ENE 22 0,0
19.02.2018 20:00:00 -0,8 -3,0 26 14 35 19 ENE 14 0,0
19.02.2018 19:00:00 -0,9 -2,6 22 12 35 19 ENE 23 0,0
19.02.2018 18:00:00 -1,0 -2,0 21 12 39 21 ENE 11 0,0
19.02.2018 17:00:00 -1,1 -1,9 24 13 40 21 E 21 0,0
19.02.2018 16:00:00 -1,0 -1,7 31 17 40 21 ENE 14 0,1
19.02.2018 15:00:00 -1,0 -1,4 24 13 37 20 E 3,4 0,1
19.02.2018 14:00:00 -0,8 -1,1 27 14 40 21 E 7 0,3
19.02.2018 13:00:00 -0,3 -0,4 25 13 40 21 E 1,5 0,4
19.02.2018 12:00:00 0,5 -0,1 18 10 31 17 E 3,4 0,1
19.02.2018 11:00:00 1,2 -0,3 13 7 16 9 ENE 32 0,0
19.02.2018 10:00:00 0,9 -0,3 0 0 13 7 N 21 0,0
19.02.2018 09:00:00 -0,9 -1,6 11 6 14 8 S 14 0,0
19.02.2018 08:00:00 -1,3 -1,7 11 6 14 7 S 9 0,0
19.02.2018 07:00:00 -1,5 -1,8 7 4 14 7 S 10 0,0
19.02.2018 06:00:00 -1,6 -2,0 10 5 16 9 SSW 7 0,0
19.02.2018 05:00:00 -1,5 -1,9 10 6 16 9 SSW 7 0,0
19.02.2018 04:00:00 -1,5 -2,1 12 7 16 8 SSW 11 0,0
19.02.2018 03:00:00 -1,4 -2,0 10 6 16 8 SSW 10 0,0
19.02.2018 02:00:00 0,0 -0,8 7 4 13 7 SW 16 0,0
19.02.2018 01:00:00 -0,1 -1,1 8 4 14 8 WSW 18 0,0
19.02.2018 00:00:00 0,4 -1,0 10 5 15 8 SSW 19 0,0
18.02.2018 23:00:00 0,1 -1,5 9 5 15 8 SSW 22 0,0
18.02.2018 22:00:00 -0,5 -2,2 11 6 15 8 SW 25 0,0
18.02.2018 21:00:00 -0,4 -2,3 10 6 14 8 SSW 22 0,0
18.02.2018 20:00:00 -1,0 -2,7 10 6 14 8 SSW 24 0,0
18.02.2018 19:00:00 -0,9 -2,9 11 6 15 8 SSW 29 0,0
18.02.2018 18:00:00 0,4 -2,3 9 5 20 11 SW 38 0,0
18.02.2018 17:00:00 1,2 -2,0 9 5 24 13 WSW 50 0,0
18.02.2018 16:00:00 1,3 -1,9 14 8 27 15 W 50 0,0
18.02.2018 15:00:00 1,7 -2,3 18 10 30 16 W 49 0,0
18.02.2018 14:00:00 1,6 -1,8 19 11 32 18 W 47 0,0
18.02.2018 13:00:00 1,2 -1,9 21 11 34 18 W 33 0,0

tt = Température de l'air
td = dewpoint
ff = Vitesse du vent
fx = gusts
dd = Direction du vent
vv = visibility
rr = Quantités de précipitations

stations d'obs. à proximité